sensor_id;sensor_type;location;lat;lon;timestamp;P1;durP1;ratioP1;P2;durP2;ratioP2
28926;SDS011;16038;47.692;9.400;2023-07-29T00:00:46;16.85;;;10.65;;
28926;SDS011;16038;47.692;9.400;2023-07-29T00:03:12;12.93;;;8.95;;
28926;SDS011;16038;47.692;9.400;2023-07-29T00:05:38;14.38;;;8.43;;
28926;SDS011;16038;47.692;9.400;2023-07-29T00:08:04;11.02;;;7.68;;
28926;SDS011;16038;47.692;9.400;2023-07-29T00:10:34;10.38;;;7.32;;
28926;SDS011;16038;47.692;9.400;2023-07-29T00:13:01;12.93;;;7.32;;
28926;SDS011;16038;47.692;9.400;2023-07-29T00:15:27;13.18;;;7.38;;
28926;SDS011;16038;47.692;9.400;2023-07-29T00:17:53;13.27;;;7.60;;
28926;SDS011;16038;47.692;9.400;2023-07-29T00:20:19;10.45;;;7.85;;
28926;SDS011;16038;47.692;9.400;2023-07-29T00:22:44;11.80;;;7.80;;
28926;SDS011;16038;47.692;9.400;2023-07-29T00:25:10;12.73;;;7.35;;
28926;SDS011;16038;47.692;9.400;2023-07-29T00:27:35;9.80;;;7.28;;
28926;SDS011;16038;47.692;9.400;2023-07-29T00:30:00;9.98;;;6.82;;
28926;SDS011;16038;47.692;9.400;2023-07-29T00:32:27;10.80;;;6.82;;
28926;SDS011;16038;47.692;9.400;2023-07-29T00:34:54;12.95;;;6.88;;
28926;SDS011;16038;47.692;9.400;2023-07-29T00:37:20;15.77;;;8.25;;
28926;SDS011;16038;47.692;9.400;2023-07-29T00:39:45;13.32;;;8.98;;
28926;SDS011;16038;47.692;9.400;2023-07-29T00:42:11;11.25;;;7.72;;
28926;SDS011;16038;47.692;9.400;2023-07-29T00:44:36;10.85;;;7.25;;
28926;SDS011;16038;47.692;9.400;2023-07-29T00:47:02;12.98;;;7.85;;
28926;SDS011;16038;47.692;9.400;2023-07-29T00:49:30;12.10;;;8.27;;
28926;SDS011;16038;47.692;9.400;2023-07-29T00:51:56;8.18;;;6.22;;
28926;SDS011;16038;47.692;9.400;2023-07-29T00:54:21;14.18;;;6.97;;
28926;SDS011;16038;47.692;9.400;2023-07-29T00:56:47;8.98;;;6.40;;
28926;SDS011;16038;47.692;9.400;2023-07-29T00:59:12;7.72;;;5.65;;
28926;SDS011;16038;47.692;9.400;2023-07-29T01:01:38;9.32;;;6.32;;
28926;SDS011;16038;47.692;9.400;2023-07-29T01:04:03;10.52;;;7.30;;
28926;SDS011;16038;47.692;9.400;2023-07-29T01:06:31;11.70;;;7.25;;
28926;SDS011;16038;47.692;9.400;2023-07-29T01:11:47;12.75;;;6.32;;
28926;SDS011;16038;47.692;9.400;2023-07-29T01:14:29;10.70;;;6.53;;
28926;SDS011;16038;47.692;9.400;2023-07-29T01:17:12;9.85;;;6.50;;
28926;SDS011;16038;47.692;9.400;2023-07-29T01:22:33;12.93;;;6.85;;
28926;SDS011;16038;47.692;9.400;2023-07-29T01:24:59;9.80;;;6.15;;
28926;SDS011;16038;47.692;9.400;2023-07-29T01:27:25;9.85;;;6.10;;
28926;SDS011;16038;47.692;9.400;2023-07-29T01:29:51;9.52;;;6.05;;
28926;SDS011;16038;47.692;9.400;2023-07-29T01:32:20;9.52;;;6.30;;
28926;SDS011;16038;47.692;9.400;2023-07-29T01:35:12;9.20;;;5.95;;
28926;SDS011;16038;47.692;9.400;2023-07-29T01:37:44;10.45;;;6.47;;
28926;SDS011;16038;47.692;9.400;2023-07-29T01:40:16;7.82;;;5.97;;
28926;SDS011;16038;47.692;9.400;2023-07-29T01:42:43;11.05;;;6.75;;
28926;SDS011;16038;47.692;9.400;2023-07-29T01:45:10;10.25;;;5.93;;
28926;SDS011;16038;47.692;9.400;2023-07-29T01:47:36;8.60;;;6.15;;
28926;SDS011;16038;47.692;9.400;2023-07-29T01:50:03;9.05;;;5.63;;
28926;SDS011;16038;47.692;9.400;2023-07-29T01:52:29;8.35;;;5.45;;
28926;SDS011;16038;47.692;9.400;2023-07-29T01:54:54;8.93;;;5.63;;
28926;SDS011;16038;47.692;9.400;2023-07-29T01:57:20;10.15;;;5.00;;
28926;SDS011;16038;47.692;9.400;2023-07-29T01:59:45;9.75;;;5.55;;
28926;SDS011;16038;47.692;9.400;2023-07-29T02:02:11;10.82;;;5.32;;
28926;SDS011;16038;47.692;9.400;2023-07-29T02:04:37;7.00;;;4.95;;
28926;SDS011;16038;47.692;9.400;2023-07-29T02:07:02;8.40;;;5.25;;
28926;SDS011;16038;47.692;9.400;2023-07-29T02:09:27;8.93;;;5.50;;
28926;SDS011;16038;47.692;9.400;2023-07-29T02:11:53;6.47;;;4.80;;
28926;SDS011;16038;47.692;9.400;2023-07-29T02:14:19;10.15;;;5.20;;
28926;SDS011;16038;47.692;9.400;2023-07-29T02:16:44;9.40;;;5.45;;
28926;SDS011;16038;47.692;9.400;2023-07-29T02:19:10;7.43;;;5.32;;
28926;SDS011;16038;47.692;9.400;2023-07-29T02:21:35;13.20;;;5.72;;
28926;SDS011;16038;47.692;9.400;2023-07-29T02:24:00;7.95;;;5.15;;
28926;SDS011;16038;47.692;9.400;2023-07-29T02:26:27;9.00;;;5.28;;
28926;SDS011;16038;47.692;9.400;2023-07-29T02:28:52;7.30;;;5.35;;
28926;SDS011;16038;47.692;9.400;2023-07-29T02:31:20;6.57;;;4.22;;
28926;SDS011;16038;47.692;9.400;2023-07-29T02:33:46;9.55;;;5.40;;
28926;SDS011;16038;47.692;9.400;2023-07-29T02:36:12;9.13;;;5.18;;
28926;SDS011;16038;47.692;9.400;2023-07-29T02:38:38;7.20;;;4.90;;
28926;SDS011;16038;47.692;9.400;2023-07-29T02:41:04;8.38;;;4.70;;
28926;SDS011;16038;47.692;9.400;2023-07-29T02:43:29;7.22;;;3.90;;
28926;SDS011;16038;47.692;9.400;2023-07-29T02:45:55;7.20;;;4.47;;
28926;SDS011;16038;47.692;9.400;2023-07-29T02:48:20;6.70;;;4.00;;
28926;SDS011;16038;47.692;9.400;2023-07-29T02:50:45;6.93;;;4.00;;
28926;SDS011;16038;47.692;9.400;2023-07-29T02:53:11;5.70;;;4.38;;
28926;SDS011;16038;47.692;9.400;2023-07-29T02:55:39;6.65;;;4.28;;
28926;SDS011;16038;47.692;9.400;2023-07-29T02:58:05;10.30;;;5.53;;
28926;SDS011;16038;47.692;9.400;2023-07-29T03:00:31;13.43;;;5.18;;
28926;SDS011;16038;47.692;9.400;2023-07-29T03:02:57;8.90;;;4.90;;
28926;SDS011;16038;47.692;9.400;2023-07-29T03:05:23;7.30;;;4.82;;
28926;SDS011;16038;47.692;9.400;2023-07-29T03:07:48;10.85;;;5.25;;
28926;SDS011;16038;47.692;9.400;2023-07-29T03:10:14;7.70;;;4.70;;
28926;SDS011;16038;47.692;9.400;2023-07-29T03:12:40;8.02;;;4.63;;
28926;SDS011;16038;47.692;9.400;2023-07-29T03:15:05;9.20;;;5.75;;
28926;SDS011;16038;47.692;9.400;2023-07-29T03:17:31;8.52;;;5.38;;
28926;SDS011;16038;47.692;9.400;2023-07-29T03:19:57;9.73;;;5.63;;
28926;SDS011;16038;47.692;9.400;2023-07-29T03:22:22;7.55;;;4.97;;
28926;SDS011;16038;47.692;9.400;2023-07-29T03:24:47;7.97;;;4.55;;
28926;SDS011;16038;47.692;9.400;2023-07-29T03:27:13;8.73;;;5.53;;
28926;SDS011;16038;47.692;9.400;2023-07-29T03:29:40;11.18;;;5.97;;
28926;SDS011;16038;47.692;9.400;2023-07-29T03:32:06;8.18;;;5.32;;
28926;SDS011;16038;47.692;9.400;2023-07-29T03:34:31;9.45;;;5.22;;
28926;SDS011;16038;47.692;9.400;2023-07-29T03:36:57;11.27;;;5.38;;
28926;SDS011;16038;47.692;9.400;2023-07-29T03:39:22;5.95;;;4.40;;
28926;SDS011;16038;47.692;9.400;2023-07-29T03:41:48;6.72;;;5.03;;
28926;SDS011;16038;47.692;9.400;2023-07-29T03:44:13;7.53;;;4.97;;
28926;SDS011;16038;47.692;9.400;2023-07-29T03:46:39;7.82;;;5.07;;
28926;SDS011;16038;47.692;9.400;2023-07-29T03:49:04;8.23;;;5.15;;
28926;SDS011;16038;47.692;9.400;2023-07-29T03:51:29;8.00;;;5.25;;
28926;SDS011;16038;47.692;9.400;2023-07-29T03:53:55;8.80;;;5.03;;
28926;SDS011;16038;47.692;9.400;2023-07-29T03:56:20;9.48;;;5.03;;
28926;SDS011;16038;47.692;9.400;2023-07-29T03:58:46;8.85;;;5.05;;
28926;SDS011;16038;47.692;9.400;2023-07-29T04:01:13;7.82;;;5.20;;
28926;SDS011;16038;47.692;9.400;2023-07-29T04:03:38;8.23;;;5.10;;
28926;SDS011;16038;47.692;9.400;2023-07-29T04:06:04;8.35;;;4.78;;
28926;SDS011;16038;47.692;9.400;2023-07-29T04:08:29;7.03;;;4.88;;
28926;SDS011;16038;47.692;9.400;2023-07-29T04:10:55;9.25;;;4.85;;
28926;SDS011;16038;47.692;9.400;2023-07-29T04:13:20;6.60;;;4.47;;
28926;SDS011;16038;47.692;9.400;2023-07-29T04:15:46;8.40;;;4.60;;
28926;SDS011;16038;47.692;9.400;2023-07-29T04:18:11;10.95;;;5.50;;
28926;SDS011;16038;47.692;9.400;2023-07-29T04:20:37;12.00;;;5.65;;
28926;SDS011;16038;47.692;9.400;2023-07-29T04:23:02;11.10;;;5.70;;
28926;SDS011;16038;47.692;9.400;2023-07-29T04:25:27;11.68;;;5.88;;
28926;SDS011;16038;47.692;9.400;2023-07-29T04:27:53;7.10;;;5.10;;
28926;SDS011;16038;47.692;9.400;2023-07-29T04:30:19;6.95;;;4.97;;
28926;SDS011;16038;47.692;9.400;2023-07-29T04:32:44;8.05;;;5.18;;
28926;SDS011;16038;47.692;9.400;2023-07-29T04:35:13;8.88;;;4.57;;
28926;SDS011;16038;47.692;9.400;2023-07-29T04:37:39;11.88;;;4.90;;
28926;SDS011;16038;47.692;9.400;2023-07-29T04:40:05;7.18;;;4.03;;
28926;SDS011;16038;47.692;9.400;2023-07-29T04:42:31;6.68;;;4.40;;
28926;SDS011;16038;47.692;9.400;2023-07-29T04:44:56;6.63;;;4.03;;
28926;SDS011;16038;47.692;9.400;2023-07-29T04:47:22;7.45;;;5.13;;
28926;SDS011;16038;47.692;9.400;2023-07-29T04:49:49;10.25;;;4.47;;
28926;SDS011;16038;47.692;9.400;2023-07-29T04:52:14;8.65;;;4.88;;
28926;SDS011;16038;47.692;9.400;2023-07-29T04:54:40;8.00;;;4.38;;
28926;SDS011;16038;47.692;9.400;2023-07-29T04:57:06;6.97;;;4.53;;
28926;SDS011;16038;47.692;9.400;2023-07-29T04:59:31;6.55;;;4.68;;
28926;SDS011;16038;47.692;9.400;2023-07-29T05:01:56;7.07;;;4.53;;
28926;SDS011;16038;47.692;9.400;2023-07-29T05:04:22;9.73;;;4.95;;
28926;SDS011;16038;47.692;9.400;2023-07-29T05:06:48;8.43;;;5.95;;
28926;SDS011;16038;47.692;9.400;2023-07-29T05:11:40;9.38;;;5.43;;
28926;SDS011;16038;47.692;9.400;2023-07-29T05:14:06;11.05;;;5.55;;
28926;SDS011;16038;47.692;9.400;2023-07-29T05:16:32;8.70;;;5.18;;
28926;SDS011;16038;47.692;9.400;2023-07-29T05:18:57;11.30;;;6.03;;
28926;SDS011;16038;47.692;9.400;2023-07-29T05:21:23;8.10;;;5.25;;
28926;SDS011;16038;47.692;9.400;2023-07-29T05:23:48;8.77;;;5.13;;
28926;SDS011;16038;47.692;9.400;2023-07-29T05:26:13;11.07;;;5.18;;
28926;SDS011;16038;47.692;9.400;2023-07-29T05:28:39;10.43;;;5.70;;
28926;SDS011;16038;47.692;9.400;2023-07-29T05:31:04;11.95;;;5.65;;
28926;SDS011;16038;47.692;9.400;2023-07-29T05:33:29;8.02;;;4.97;;
28926;SDS011;16038;47.692;9.400;2023-07-29T05:35:55;7.97;;;5.00;;
28926;SDS011;16038;47.692;9.400;2023-07-29T05:38:20;9.65;;;5.40;;
28926;SDS011;16038;47.692;9.400;2023-07-29T05:40:47;12.10;;;4.75;;
28926;SDS011;16038;47.692;9.400;2023-07-29T05:43:13;8.10;;;5.43;;
28926;SDS011;16038;47.692;9.400;2023-07-29T05:45:39;7.00;;;4.70;;
28926;SDS011;16038;47.692;9.400;2023-07-29T05:48:05;9.90;;;5.15;;
28926;SDS011;16038;47.692;9.400;2023-07-29T05:50:30;7.60;;;4.70;;
28926;SDS011;16038;47.692;9.400;2023-07-29T05:52:56;6.28;;;3.92;;
28926;SDS011;16038;47.692;9.400;2023-07-29T05:55:21;8.15;;;3.72;;
28926;SDS011;16038;47.692;9.400;2023-07-29T05:57:47;7.00;;;3.97;;
28926;SDS011;16038;47.692;9.400;2023-07-29T06:00:12;6.47;;;3.80;;
28926;SDS011;16038;47.692;9.400;2023-07-29T06:02:38;9.82;;;4.80;;
28926;SDS011;16038;47.692;9.400;2023-07-29T06:05:04;9.60;;;4.40;;
28926;SDS011;16038;47.692;9.400;2023-07-29T06:07:30;6.90;;;3.80;;
28926;SDS011;16038;47.692;9.400;2023-07-29T06:09:57;6.15;;;4.28;;
28926;SDS011;16038;47.692;9.400;2023-07-29T06:12:23;8.52;;;3.65;;
28926;SDS011;16038;47.692;9.400;2023-07-29T06:14:48;8.63;;;3.67;;
28926;SDS011;16038;47.692;9.400;2023-07-29T06:17:13;6.03;;;3.75;;
28926;SDS011;16038;47.692;9.400;2023-07-29T06:19:39;5.18;;;3.10;;
28926;SDS011;16038;47.692;9.400;2023-07-29T06:22:04;6.88;;;4.00;;
28926;SDS011;16038;47.692;9.400;2023-07-29T06:24:30;5.35;;;3.55;;
28926;SDS011;16038;47.692;9.400;2023-07-29T06:26:56;6.60;;;3.60;;
28926;SDS011;16038;47.692;9.400;2023-07-29T06:29:21;5.80;;;3.08;;
28926;SDS011;16038;47.692;9.400;2023-07-29T06:31:47;4.78;;;3.10;;
28926;SDS011;16038;47.692;9.400;2023-07-29T06:34:12;4.07;;;2.88;;
28926;SDS011;16038;47.692;9.400;2023-07-29T06:36:38;6.72;;;3.38;;
28926;SDS011;16038;47.692;9.400;2023-07-29T06:39:03;5.45;;;2.80;;
28926;SDS011;16038;47.692;9.400;2023-07-29T06:41:28;7.32;;;3.17;;
28926;SDS011;16038;47.692;9.400;2023-07-29T06:43:54;5.35;;;3.05;;
28926;SDS011;16038;47.692;9.400;2023-07-29T06:46:19;4.13;;;2.55;;
28926;SDS011;16038;47.692;9.400;2023-07-29T06:48:44;4.75;;;3.03;;
28926;SDS011;16038;47.692;9.400;2023-07-29T06:51:10;5.43;;;3.17;;
28926;SDS011;16038;47.692;9.400;2023-07-29T06:53:35;5.53;;;3.28;;
28926;SDS011;16038;47.692;9.400;2023-07-29T06:56:01;4.63;;;3.00;;
28926;SDS011;16038;47.692;9.400;2023-07-29T06:58:26;4.35;;;2.65;;
28926;SDS011;16038;47.692;9.400;2023-07-29T07:00:52;5.78;;;2.67;;
28926;SDS011;16038;47.692;9.400;2023-07-29T07:03:17;4.78;;;2.83;;
28926;SDS011;16038;47.692;9.400;2023-07-29T07:05:43;5.50;;;3.25;;
28926;SDS011;16038;47.692;9.400;2023-07-29T07:08:08;5.22;;;3.15;;
28926;SDS011;16038;47.692;9.400;2023-07-29T07:10:34;5.53;;;2.80;;
28926;SDS011;16038;47.692;9.400;2023-07-29T07:12:59;4.93;;;2.80;;
28926;SDS011;16038;47.692;9.400;2023-07-29T07:15:25;4.10;;;2.67;;
28926;SDS011;16038;47.692;9.400;2023-07-29T07:17:51;6.18;;;3.30;;
28926;SDS011;16038;47.692;9.400;2023-07-29T07:20:16;7.88;;;2.85;;
28926;SDS011;16038;47.692;9.400;2023-07-29T07:22:42;6.13;;;3.00;;
28926;SDS011;16038;47.692;9.400;2023-07-29T07:25:07;4.90;;;3.22;;
28926;SDS011;16038;47.692;9.400;2023-07-29T07:27:33;6.13;;;2.90;;
28926;SDS011;16038;47.692;9.400;2023-07-29T07:29:58;6.13;;;3.10;;
28926;SDS011;16038;47.692;9.400;2023-07-29T07:32:24;5.97;;;3.17;;
28926;SDS011;16038;47.692;9.400;2023-07-29T07:34:49;4.85;;;2.90;;
28926;SDS011;16038;47.692;9.400;2023-07-29T07:37:14;6.57;;;3.45;;
28926;SDS011;16038;47.692;9.400;2023-07-29T07:39:40;7.32;;;3.45;;
28926;SDS011;16038;47.692;9.400;2023-07-29T07:42:05;5.95;;;3.47;;
28926;SDS011;16038;47.692;9.400;2023-07-29T07:44:31;5.03;;;3.40;;
28926;SDS011;16038;47.692;9.400;2023-07-29T07:46:56;5.88;;;2.83;;
28926;SDS011;16038;47.692;9.400;2023-07-29T07:49:22;6.32;;;3.30;;
28926;SDS011;16038;47.692;9.400;2023-07-29T07:51:53;4.85;;;2.97;;
28926;SDS011;16038;47.692;9.400;2023-07-29T07:54:19;6.72;;;3.50;;
28926;SDS011;16038;47.692;9.400;2023-07-29T07:56:44;4.78;;;2.78;;
28926;SDS011;16038;47.692;9.400;2023-07-29T07:59:10;5.03;;;3.38;;
28926;SDS011;16038;47.692;9.400;2023-07-29T08:01:35;5.25;;;3.28;;
28926;SDS011;16038;47.692;9.400;2023-07-29T08:04:02;8.50;;;3.38;;
28926;SDS011;16038;47.692;9.400;2023-07-29T08:06:28;9.35;;;3.58;;
28926;SDS011;16038;47.692;9.400;2023-07-29T08:08:54;5.78;;;3.53;;
28926;SDS011;16038;47.692;9.400;2023-07-29T08:11:19;4.50;;;3.33;;
28926;SDS011;16038;47.692;9.400;2023-07-29T08:13:45;4.72;;;3.30;;
28926;SDS011;16038;47.692;9.400;2023-07-29T08:16:11;5.93;;;3.53;;
28926;SDS011;16038;47.692;9.400;2023-07-29T08:18:37;5.15;;;3.15;;
28926;SDS011;16038;47.692;9.400;2023-07-29T08:21:03;7.13;;;3.20;;
28926;SDS011;16038;47.692;9.400;2023-07-29T08:23:32;5.13;;;3.22;;
28926;SDS011;16038;47.692;9.400;2023-07-29T08:25:59;5.72;;;3.60;;
28926;SDS011;16038;47.692;9.400;2023-07-29T08:28:27;4.65;;;3.25;;
28926;SDS011;16038;47.692;9.400;2023-07-29T08:30:53;5.47;;;3.08;;
28926;SDS011;16038;47.692;9.400;2023-07-29T08:33:19;5.00;;;3.58;;
28926;SDS011;16038;47.692;9.400;2023-07-29T08:35:44;6.55;;;2.92;;
28926;SDS011;16038;47.692;9.400;2023-07-29T08:38:10;7.10;;;3.17;;
28926;SDS011;16038;47.692;9.400;2023-07-29T08:40:36;5.43;;;3.20;;
28926;SDS011;16038;47.692;9.400;2023-07-29T08:43:04;7.28;;;3.35;;
28926;SDS011;16038;47.692;9.400;2023-07-29T08:45:31;5.00;;;3.20;;
28926;SDS011;16038;47.692;9.400;2023-07-29T08:48:03;5.00;;;2.78;;
28926;SDS011;16038;47.692;9.400;2023-07-29T08:50:33;6.82;;;3.28;;
28926;SDS011;16038;47.692;9.400;2023-07-29T08:53:01;5.00;;;2.90;;
28926;SDS011;16038;47.692;9.400;2023-07-29T08:57:56;7.50;;;3.30;;
28926;SDS011;16038;47.692;9.400;2023-07-29T09:00:23;4.63;;;3.42;;
28926;SDS011;16038;47.692;9.400;2023-07-29T09:02:50;7.00;;;3.58;;
28926;SDS011;16038;47.692;9.400;2023-07-29T09:05:16;6.45;;;3.45;;
28926;SDS011;16038;47.692;9.400;2023-07-29T09:07:41;6.38;;;3.83;;
28926;SDS011;16038;47.692;9.400;2023-07-29T09:10:09;8.57;;;4.85;;
28926;SDS011;16038;47.692;9.400;2023-07-29T09:12:36;6.05;;;3.78;;
28926;SDS011;16038;47.692;9.400;2023-07-29T09:15:01;6.50;;;3.88;;
28926;SDS011;16038;47.692;9.400;2023-07-29T09:17:30;6.75;;;3.60;;
28926;SDS011;16038;47.692;9.400;2023-07-29T09:20:01;6.88;;;3.90;;
28926;SDS011;16038;47.692;9.400;2023-07-29T09:22:27;7.50;;;3.70;;
28926;SDS011;16038;47.692;9.400;2023-07-29T09:24:53;5.80;;;3.40;;
28926;SDS011;16038;47.692;9.400;2023-07-29T09:27:28;9.85;;;3.70;;
28926;SDS011;16038;47.692;9.400;2023-07-29T09:29:59;7.72;;;3.85;;
28926;SDS011;16038;47.692;9.400;2023-07-29T09:32:24;6.18;;;3.30;;
28926;SDS011;16038;47.692;9.400;2023-07-29T09:34:50;5.07;;;3.40;;
28926;SDS011;16038;47.692;9.400;2023-07-29T09:37:23;7.40;;;3.72;;
28926;SDS011;16038;47.692;9.400;2023-07-29T09:39:48;8.20;;;4.05;;
28926;SDS011;16038;47.692;9.400;2023-07-29T09:42:21;5.25;;;3.50;;
28926;SDS011;16038;47.692;9.400;2023-07-29T09:44:48;4.53;;;3.22;;
28926;SDS011;16038;47.692;9.400;2023-07-29T09:47:24;15.38;;;8.18;;
28926;SDS011;16038;47.692;9.400;2023-07-29T09:49:52;5.72;;;3.78;;
28926;SDS011;16038;47.692;9.400;2023-07-29T09:52:21;5.07;;;3.60;;
28926;SDS011;16038;47.692;9.400;2023-07-29T09:54:48;6.90;;;3.40;;
28926;SDS011;16038;47.692;9.400;2023-07-29T09:57:14;6.10;;;3.40;;
28926;SDS011;16038;47.692;9.400;2023-07-29T09:59:47;6.07;;;3.45;;
28926;SDS011;16038;47.692;9.400;2023-07-29T10:02:18;5.10;;;3.20;;
28926;SDS011;16038;47.692;9.400;2023-07-29T10:04:46;6.32;;;3.50;;
28926;SDS011;16038;47.692;9.400;2023-07-29T10:07:11;5.07;;;3.13;;
28926;SDS011;16038;47.692;9.400;2023-07-29T10:09:40;6.07;;;3.67;;
28926;SDS011;16038;47.692;9.400;2023-07-29T10:12:06;6.82;;;3.10;;
28926;SDS011;16038;47.692;9.400;2023-07-29T10:14:36;5.88;;;3.58;;
28926;SDS011;16038;47.692;9.400;2023-07-29T10:17:04;5.13;;;3.40;;
28926;SDS011;16038;47.692;9.400;2023-07-29T10:19:31;5.55;;;3.60;;
28926;SDS011;16038;47.692;9.400;2023-07-29T10:21:56;5.85;;;3.78;;
28926;SDS011;16038;47.692;9.400;2023-07-29T10:24:28;4.60;;;3.25;;
28926;SDS011;16038;47.692;9.400;2023-07-29T10:27:00;6.07;;;3.47;;
28926;SDS011;16038;47.692;9.400;2023-07-29T10:29:32;6.10;;;3.42;;
28926;SDS011;16038;47.692;9.400;2023-07-29T10:32:03;6.90;;;3.70;;
28926;SDS011;16038;47.692;9.400;2023-07-29T10:34:30;5.88;;;3.35;;
28926;SDS011;16038;47.692;9.400;2023-07-29T10:36:57;4.70;;;3.38;;
28926;SDS011;16038;47.692;9.400;2023-07-29T10:39:24;6.85;;;3.60;;
28926;SDS011;16038;47.692;9.400;2023-07-29T10:41:54;6.45;;;3.80;;
28926;SDS011;16038;47.692;9.400;2023-07-29T10:47:18;7.65;;;2.97;;
28926;SDS011;16038;47.692;9.400;2023-07-29T10:49:49;4.70;;;3.00;;
28926;SDS011;16038;47.692;9.400;2023-07-29T10:55:01;4.95;;;3.40;;
28926;SDS011;16038;47.692;9.400;2023-07-29T10:57:34;4.68;;;3.08;;
28926;SDS011;16038;47.692;9.400;2023-07-29T11:00:01;5.25;;;2.88;;
28926;SDS011;16038;47.692;9.400;2023-07-29T11:02:29;4.78;;;2.65;;
28926;SDS011;16038;47.692;9.400;2023-07-29T11:05:04;4.15;;;2.78;;
28926;SDS011;16038;47.692;9.400;2023-07-29T11:07:31;4.25;;;2.50;;
28926;SDS011;16038;47.692;9.400;2023-07-29T11:10:08;4.30;;;2.50;;
28926;SDS011;16038;47.692;9.400;2023-07-29T11:18:01;4.32;;;2.67;;
28926;SDS011;16038;47.692;9.400;2023-07-29T11:20:28;7.38;;;3.50;;
28926;SDS011;16038;47.692;9.400;2023-07-29T11:22:55;3.72;;;2.63;;
28926;SDS011;16038;47.692;9.400;2023-07-29T11:25:25;5.78;;;2.90;;
28926;SDS011;16038;47.692;9.400;2023-07-29T11:27:53;6.72;;;2.55;;
28926;SDS011;16038;47.692;9.400;2023-07-29T11:30:20;4.15;;;2.80;;
28926;SDS011;16038;47.692;9.400;2023-07-29T11:32:46;4.60;;;2.65;;
28926;SDS011;16038;47.692;9.400;2023-07-29T11:35:16;3.70;;;2.65;;
28926;SDS011;16038;47.692;9.400;2023-07-29T11:37:47;4.47;;;2.53;;
28926;SDS011;16038;47.692;9.400;2023-07-29T11:40:14;4.53;;;2.70;;
28926;SDS011;16038;47.692;9.400;2023-07-29T11:42:41;5.05;;;2.92;;
28926;SDS011;16038;47.692;9.400;2023-07-29T11:45:10;4.75;;;2.85;;
28926;SDS011;16038;47.692;9.400;2023-07-29T11:47:42;4.20;;;2.88;;
28926;SDS011;16038;47.692;9.400;2023-07-29T11:50:14;4.43;;;3.03;;
28926;SDS011;16038;47.692;9.400;2023-07-29T11:52:41;7.55;;;2.80;;
28926;SDS011;16038;47.692;9.400;2023-07-29T11:55:08;3.60;;;2.50;;
28926;SDS011;16038;47.692;9.400;2023-07-29T11:57:37;3.90;;;2.53;;
28926;SDS011;16038;47.692;9.400;2023-07-29T12:00:05;4.60;;;2.83;;
28926;SDS011;16038;47.692;9.400;2023-07-29T12:02:32;5.30;;;2.42;;
28926;SDS011;16038;47.692;9.400;2023-07-29T12:05:00;4.00;;;2.47;;
28926;SDS011;16038;47.692;9.400;2023-07-29T12:07:29;5.03;;;2.95;;
28926;SDS011;16038;47.692;9.400;2023-07-29T12:09:55;4.20;;;2.60;;
28926;SDS011;16038;47.692;9.400;2023-07-29T12:12:22;4.78;;;2.30;;
28926;SDS011;16038;47.692;9.400;2023-07-29T12:14:50;3.08;;;2.60;;
28926;SDS011;16038;47.692;9.400;2023-07-29T12:17:15;3.80;;;2.40;;
28926;SDS011;16038;47.692;9.400;2023-07-29T12:19:41;5.15;;;2.55;;
28926;SDS011;16038;47.692;9.400;2023-07-29T12:22:08;6.78;;;2.47;;
28926;SDS011;16038;47.692;9.400;2023-07-29T12:24:39;5.65;;;2.40;;
28926;SDS011;16038;47.692;9.400;2023-07-29T12:27:05;9.27;;;2.40;;
28926;SDS011;16038;47.692;9.400;2023-07-29T12:29:39;4.05;;;2.40;;
28926;SDS011;16038;47.692;9.400;2023-07-29T12:32:06;4.43;;;2.60;;
28926;SDS011;16038;47.692;9.400;2023-07-29T12:34:31;4.20;;;2.50;;
28926;SDS011;16038;47.692;9.400;2023-07-29T12:36:57;5.85;;;2.72;;
28926;SDS011;16038;47.692;9.400;2023-07-29T12:39:31;5.32;;;2.78;;
28926;SDS011;16038;47.692;9.400;2023-07-29T12:41:59;5.00;;;2.50;;
28926;SDS011;16038;47.692;9.400;2023-07-29T12:44:30;4.10;;;2.80;;
28926;SDS011;16038;47.692;9.400;2023-07-29T12:46:57;4.97;;;2.72;;
28926;SDS011;16038;47.692;9.400;2023-07-29T12:49:23;3.70;;;2.47;;
28926;SDS011;16038;47.692;9.400;2023-07-29T12:51:48;5.13;;;2.70;;
28926;SDS011;16038;47.692;9.400;2023-07-29T12:54:13;4.43;;;2.90;;
28926;SDS011;16038;47.692;9.400;2023-07-29T12:56:39;4.85;;;2.45;;
28926;SDS011;16038;47.692;9.400;2023-07-29T12:59:05;3.78;;;2.60;;
28926;SDS011;16038;47.692;9.400;2023-07-29T13:01:30;5.65;;;2.60;;
28926;SDS011;16038;47.692;9.400;2023-07-29T13:03:56;3.78;;;2.40;;
28926;SDS011;16038;47.692;9.400;2023-07-29T13:06:22;3.90;;;2.58;;
28926;SDS011;16038;47.692;9.400;2023-07-29T13:08:47;4.30;;;2.60;;
28926;SDS011;16038;47.692;9.400;2023-07-29T13:11:14;4.28;;;2.60;;
28926;SDS011;16038;47.692;9.400;2023-07-29T13:13:40;3.25;;;2.28;;
28926;SDS011;16038;47.692;9.400;2023-07-29T13:16:05;3.53;;;1.90;;
28926;SDS011;16038;47.692;9.400;2023-07-29T13:18:31;3.60;;;2.00;;
28926;SDS011;16038;47.692;9.400;2023-07-29T13:20:57;3.30;;;2.17;;
28926;SDS011;16038;47.692;9.400;2023-07-29T13:23:22;5.25;;;2.20;;
28926;SDS011;16038;47.692;9.400;2023-07-29T13:25:48;6.25;;;2.20;;
28926;SDS011;16038;47.692;9.400;2023-07-29T13:28:13;4.95;;;2.78;;
28926;SDS011;16038;47.692;9.400;2023-07-29T13:30:42;5.13;;;2.97;;
28926;SDS011;16038;47.692;9.400;2023-07-29T13:33:07;6.43;;;4.13;;
28926;SDS011;16038;47.692;9.400;2023-07-29T13:35:33;8.77;;;3.20;;
28926;SDS011;16038;47.692;9.400;2023-07-29T13:37:59;5.13;;;3.00;;
28926;SDS011;16038;47.692;9.400;2023-07-29T13:40:25;6.07;;;3.63;;
28926;SDS011;16038;47.692;9.400;2023-07-29T13:42:51;5.45;;;3.00;;
28926;SDS011;16038;47.692;9.400;2023-07-29T13:45:17;4.53;;;2.92;;
28926;SDS011;16038;47.692;9.400;2023-07-29T13:47:43;5.20;;;3.25;;
28926;SDS011;16038;47.692;9.400;2023-07-29T13:50:08;5.18;;;3.00;;
28926;SDS011;16038;47.692;9.400;2023-07-29T13:52:33;5.18;;;2.97;;
28926;SDS011;16038;47.692;9.400;2023-07-29T13:54:59;7.50;;;2.63;;
28926;SDS011;16038;47.692;9.400;2023-07-29T13:57:24;6.15;;;3.15;;
28926;SDS011;16038;47.692;9.400;2023-07-29T13:59:50;6.13;;;3.03;;
28926;SDS011;16038;47.692;9.400;2023-07-29T14:02:15;5.25;;;3.00;;
28926;SDS011;16038;47.692;9.400;2023-07-29T14:04:41;7.20;;;3.08;;
28926;SDS011;16038;47.692;9.400;2023-07-29T14:07:06;4.95;;;2.95;;
28926;SDS011;16038;47.692;9.400;2023-07-29T14:09:32;6.93;;;4.72;;
28926;SDS011;16038;47.692;9.400;2023-07-29T14:11:57;6.90;;;3.45;;
28926;SDS011;16038;47.692;9.400;2023-07-29T14:14:22;4.88;;;2.90;;
28926;SDS011;16038;47.692;9.400;2023-07-29T14:16:48;3.88;;;2.70;;
28926;SDS011;16038;47.692;9.400;2023-07-29T14:19:14;6.22;;;3.20;;
28926;SDS011;16038;47.692;9.400;2023-07-29T14:21:40;6.38;;;2.92;;
28926;SDS011;16038;47.692;9.400;2023-07-29T14:24:05;4.85;;;2.78;;
28926;SDS011;16038;47.692;9.400;2023-07-29T14:26:30;5.70;;;2.55;;
28926;SDS011;16038;47.692;9.400;2023-07-29T14:28:56;6.07;;;2.78;;
28926;SDS011;16038;47.692;9.400;2023-07-29T14:31:21;6.05;;;2.60;;
28926;SDS011;16038;47.692;9.400;2023-07-29T14:33:47;4.75;;;2.38;;
28926;SDS011;16038;47.692;9.400;2023-07-29T14:36:12;5.95;;;2.67;;
28926;SDS011;16038;47.692;9.400;2023-07-29T14:38:38;6.85;;;2.72;;
28926;SDS011;16038;47.692;9.400;2023-07-29T14:41:03;4.30;;;2.53;;
28926;SDS011;16038;47.692;9.400;2023-07-29T14:43:30;4.95;;;2.67;;
28926;SDS011;16038;47.692;9.400;2023-07-29T14:45:56;6.28;;;2.70;;
28926;SDS011;16038;47.692;9.400;2023-07-29T14:48:21;4.68;;;2.58;;
28926;SDS011;16038;47.692;9.400;2023-07-29T14:50:48;4.95;;;2.40;;
28926;SDS011;16038;47.692;9.400;2023-07-29T14:53:13;5.78;;;2.80;;
28926;SDS011;16038;47.692;9.400;2023-07-29T14:55:39;5.80;;;2.85;;
28926;SDS011;16038;47.692;9.400;2023-07-29T14:58:04;4.05;;;2.30;;
28926;SDS011;16038;47.692;9.400;2023-07-29T15:00:29;5.88;;;2.28;;
28926;SDS011;16038;47.692;9.400;2023-07-29T15:02:55;4.00;;;2.50;;